Time;durP1;ratioP1;P1;durP2;ratioP2;P2;SDS_P1;SDS_P2;PMS_P1;PMS_P2;Temp;Humidity;BMP_temperature;BMP_pressure;BME280_temperature;BME280_humidity;BME280_pressure;Samples;Min_cycle;Max_cycle;Signal;HPM_P1;HPM_P2
2021/12/20 00:00:15;;;;;;;38.47;21.53;;;;;;;5.53;71.97;97441.19;5079382;28;20464;-69
2021/12/20 00:02:43;;;;;;;38.03;21.07;;;;;;;5.64;71.38;97428.19;5086338;28;20189;-69
2021/12/20 00:05:09;;;;;;;34.00;20.03;;;;;;;5.41;72.68;97429.91;5067466;28;20843;-68
2021/12/20 00:07:35;;;;;;;32.47;19.50;;;;;;;5.64;72.02;97427.34;5065584;28;20435;-69
2021/12/20 00:10:01;;;;;;;40.03;21.50;;;;;;;5.76;71.26;97418.63;5059955;28;20963;-66
2021/12/20 00:12:26;;;;;;;35.43;20.07;;;;;;;5.91;70.67;97421.84;5071413;28;20210;-67
2021/12/20 00:14:52;;;;;;;36.10;21.10;;;;;;;5.84;71.48;97420.66;5059641;28;20179;-68
2021/12/20 00:17:17;;;;;;;40.37;22.10;;;;;;;5.34;72.28;97408.75;5069229;28;20231;-70
2021/12/20 00:19:43;;;;;;;39.80;21.50;;;;;;;5.45;72.00;97404.50;5060975;28;20170;-67
2021/12/20 00:22:09;;;;;;;34.87;20.60;;;;;;;5.43;72.54;97404.63;5070990;28;20300;-67
2021/12/20 00:24:34;;;;;;;37.70;20.27;;;;;;;5.66;71.89;97402.06;5057440;28;20716;-69
2021/12/20 00:27:03;;;;;;;37.87;19.53;;;;;;;5.51;72.05;97398.88;5071891;28;20186;-69
2021/12/20 00:29:29;;;;;;;35.93;20.03;;;;;;;5.54;71.94;97404.66;5066665;28;20281;-69
2021/12/20 00:31:54;;;;;;;35.30;20.63;;;;;;;5.49;72.25;97387.75;5071085;28;20464;-66
2021/12/20 00:34:20;;;;;;;39.73;20.50;;;;;;;5.51;72.36;97380.66;5068342;28;20183;-68
2021/12/20 00:36:45;;;;;;;37.03;20.10;;;;;;;5.54;72.20;97383.03;5062184;28;20188;-70
2021/12/20 00:41:55;;;;;;;38.97;21.20;;;;;;;5.80;71.68;97385.41;5071326;28;20256;-68
2021/12/20 00:44:23;;;;;;;37.37;21.47;;;;;;;5.94;70.86;97389.56;5057637;28;20574;-67
2021/12/20 00:46:48;;;;;;;34.40;19.23;;;;;;;5.78;71.00;97379.50;5062097;28;20429;-68
2021/12/20 00:49:14;;;;;;;41.23;20.23;;;;;;;5.66;71.25;97391.66;5057690;28;20425;-68
2021/12/20 00:51:39;;;;;;;40.97;21.30;;;;;;;5.27;72.66;97386.78;5066440;28;20448;-67
2021/12/20 00:54:05;;;;;;;34.43;20.57;;;;;;;5.59;71.67;97391.31;5062502;28;20183;-67
2021/12/20 00:56:30;;;;;;;36.60;20.13;;;;;;;5.46;72.30;97390.56;5073518;28;20269;-67
2021/12/20 00:58:56;;;;;;;39.73;20.80;;;;;;;5.78;71.12;97385.53;5072065;28;20202;-68
2021/12/20 01:01:22;;;;;;;37.90;19.63;;;;;;;5.58;72.24;97388.84;5059898;28;20194;-67
2021/12/20 01:03:47;;;;;;;40.70;20.30;;;;;;;5.50;72.17;97376.41;5057031;28;20187;-67
2021/12/20 01:06:13;;;;;;;37.00;19.60;;;;;;;5.17;73.27;97371.03;5070816;28;20561;-67
2021/12/20 01:08:41;;;;;;;39.73;20.67;;;;;;;5.35;72.73;97381.00;5061758;28;20190;-69
2021/12/20 01:11:07;;;;;;;40.83;21.40;;;;;;;5.36;72.26;97386.06;5062500;28;20215;-68
2021/12/20 01:13:39;;;;;;;43.80;21.40;;;;;;;5.45;72.72;97391.50;5065339;28;20433;-67
2021/12/20 01:16:06;;;;;;;43.00;21.70;;;;;;;5.54;72.08;97378.66;5076118;28;20421;-68
2021/12/20 01:18:32;;;;;;;36.40;20.90;;;;;;;5.36;72.48;97385.22;5067619;28;20430;-68
2021/12/20 01:20:57;;;;;;;37.77;20.03;;;;;;;5.06;73.38;97369.22;5063207;28;21010;-68
2021/12/20 01:23:23;;;;;;;37.77;20.33;;;;;;;5.28;72.40;97372.00;5064942;28;20186;-69
2021/12/20 01:25:49;;;;;;;42.00;21.17;;;;;;;5.51;72.10;97378.06;5065977;28;20285;-68
2021/12/20 01:28:15;;;;;;;39.50;19.13;;;;;;;5.64;70.74;97371.00;5072146;28;20183;-67
2021/12/20 01:30:41;;;;;;;40.53;21.00;;;;;;;5.57;71.28;97363.78;5074335;28;20194;-67
2021/12/20 01:33:08;;;;;;;45.67;22.27;;;;;;;5.21;72.49;97366.41;5066904;28;20899;-67
2021/12/20 01:35:35;;;;;;;43.73;21.63;;;;;;;5.26;72.69;97372.13;5059115;28;20985;-67
2021/12/20 01:38:00;;;;;;;44.00;20.53;;;;;;;5.53;71.47;97377.00;5060802;28;20796;-69
2021/12/20 01:40:26;;;;;;;41.13;22.10;;;;;;;5.47;71.41;97379.22;5072602;28;20436;-69
2021/12/20 01:42:55;;;;;;;42.43;21.10;;;;;;;5.38;71.74;97384.19;5060255;28;20592;-70
2021/12/20 01:45:23;;;;;;;44.87;21.00;;;;;;;5.60;71.78;97372.16;5057183;28;20180;-68
2021/12/20 01:47:53;;;;;;;47.60;24.00;;;;;;;5.21;71.88;97363.81;5063159;28;20490;-68
2021/12/20 01:52:45;;;;;;;47.27;23.63;;;;;;;4.90;73.92;97369.53;5072202;28;20460;-69
2021/12/20 01:55:16;;;;;;;44.83;21.83;;;;;;;5.23;72.25;97372.34;5068867;28;20918;-67
2021/12/20 01:57:43;;;;;;;47.13;23.77;;;;;;;5.28;72.35;97366.78;5059872;28;20269;-68
2021/12/20 02:00:16;;;;;;;48.47;22.90;;;;;;;5.15;72.97;97362.50;5063227;28;20444;-67
2021/12/20 02:02:43;;;;;;;50.10;23.20;;;;;;;5.07;72.53;97365.69;5056700;28;20418;-69
2021/12/20 02:05:22;;;;;;;48.90;22.70;;;;;;;4.95;72.89;97371.78;5071823;28;20560;-66
2021/12/20 02:07:58;;;;;;;50.10;23.03;;;;;;;5.07;72.50;97367.47;5071517;28;21037;-67
2021/12/20 02:10:23;;;;;;;50.80;22.87;;;;;;;5.05;72.48;97370.16;5057988;28;20948;-69
2021/12/20 02:12:49;;;;;;;48.63;22.50;;;;;;;4.89;73.68;97367.03;5057189;28;20463;-67
2021/12/20 02:15:14;;;;;;;48.83;21.87;;;;;;;4.94;73.91;97358.91;5057907;28;20630;-66
2021/12/20 02:17:41;;;;;;;49.30;22.70;;;;;;;5.01;73.48;97363.56;5063631;28;20250;-67
2021/12/20 02:20:07;;;;;;;40.77;20.43;;;;;;;5.25;72.54;97362.66;5061165;28;20585;-67
2021/12/20 02:22:32;;;;;;;47.33;21.87;;;;;;;5.14;72.95;97365.25;5068556;28;20440;-67
2021/12/20 02:24:58;;;;;;;44.20;21.97;;;;;;;5.29;71.78;97366.69;5061221;28;20479;-71
2021/12/20 02:27:24;;;;;;;45.10;21.50;;;;;;;5.29;71.90;97361.50;5065309;28;20178;-67
2021/12/20 02:30:08;;;;;;;48.20;21.23;;;;;;;5.30;72.56;97365.72;5071160;28;20633;-67
2021/12/20 02:38:17;;;;;;;49.27;21.67;;;;;;;5.03;72.45;97348.69;5047731;28;20653;-67
2021/12/20 02:40:44;;;;;;;50.17;23.30;;;;;;;4.46;75.01;97351.03;5070914;28;21040;-68
2021/12/20 02:43:13;;;;;;;51.07;22.57;;;;;;;4.52;74.69;97344.56;5062739;28;20511;-67
2021/12/20 02:45:39;;;;;;;47.13;22.87;;;;;;;4.36;75.13;97339.66;5054607;28;20560;-68
2021/12/20 02:48:05;;;;;;;46.77;20.83;;;;;;;4.17;76.53;97339.31;5052051;28;20422;-68
2021/12/20 02:50:30;;;;;;;48.40;23.20;;;;;;;4.42;75.97;97344.41;5059677;28;20874;-68
2021/12/20 02:52:56;;;;;;;50.53;21.90;;;;;;;4.62;75.09;97336.97;5069030;28;20252;-68
2021/12/20 02:55:21;;;;;;;44.20;20.20;;;;;;;4.63;75.12;97336.03;5070806;28;20175;-67
2021/12/20 02:57:47;;;;;;;50.17;21.77;;;;;;;4.52;75.89;97330.78;5062521;28;20262;-68
2021/12/20 03:00:13;;;;;;;44.10;21.73;;;;;;;4.56;75.28;97335.63;5058081;28;20598;-68
2021/12/20 03:02:39;;;;;;;45.17;21.10;;;;;;;5.00;74.23;97333.31;5057378;28;20179;-67
2021/12/20 03:05:06;;;;;;;47.77;21.43;;;;;;;5.01;73.86;97321.97;5072280;28;20439;-68
2021/12/20 03:07:41;;;;;;;47.87;21.30;;;;;;;4.65;74.52;97326.34;5071197;28;20478;-66
2021/12/20 03:10:07;;;;;;;48.40;21.33;;;;;;;4.98;73.75;97316.19;5050877;28;20960;-69
2021/12/20 03:12:33;;;;;;;44.87;21.47;;;;;;;4.95;73.53;97319.81;5065193;28;20445;-66
2021/12/20 03:15:05;;;;;;;48.67;21.60;;;;;;;5.16;73.21;97330.38;5058380;28;20432;-68
2021/12/20 03:17:31;;;;;;;42.73;20.97;;;;;;;5.13;72.85;97322.00;5064413;28;20265;-69
2021/12/20 03:19:56;;;;;;;44.47;21.13;;;;;;;5.05;73.48;97335.56;5060752;28;21040;-67
2021/12/20 03:22:22;;;;;;;47.00;21.00;;;;;;;5.30;72.62;97318.94;5062197;28;20174;-67
2021/12/20 03:24:48;;;;;;;46.67;20.63;;;;;;;5.18;72.73;97325.91;5070503;28;20178;-67
2021/12/20 03:27:14;;;;;;;44.77;20.97;;;;;;;5.25;72.75;97326.28;5059343;28;20248;-67
2021/12/20 03:29:40;;;;;;;43.33;20.40;;;;;;;5.50;71.89;97329.63;5057716;28;20424;-68
2021/12/20 03:32:06;;;;;;;46.20;20.80;;;;;;;5.58;71.60;97326.44;5070641;28;20301;-68
2021/12/20 03:34:32;;;;;;;47.97;20.97;;;;;;;5.63;71.37;97330.31;5070834;28;20181;-69
2021/12/20 03:36:57;;;;;;;50.10;23.23;;;;;;;5.74;70.82;97326.06;5069257;28;20428;-67
2021/12/20 03:39:23;;;;;;;46.43;20.63;;;;;;;5.78;70.39;97325.69;5065778;28;20586;-68
2021/12/20 03:41:48;;;;;;;46.90;21.10;;;;;;;6.03;70.41;97336.00;5067390;28;20692;-67
2021/12/20 03:44:14;;;;;;;44.27;21.00;;;;;;;5.86;70.03;97335.53;5055469;28;20179;-69
2021/12/20 03:46:40;;;;;;;42.93;19.73;;;;;;;5.26;71.62;97335.72;5059009;28;20194;-67
2021/12/20 03:49:06;;;;;;;41.63;19.50;;;;;;;5.38;71.89;97332.19;5066384;28;20209;-69
2021/12/20 03:51:32;;;;;;;41.90;20.60;;;;;;;5.21;72.53;97330.88;5052971;28;20229;-68
2021/12/20 03:53:58;;;;;;;37.63;20.00;;;;;;;5.35;72.18;97332.44;5071889;28;20433;-67
2021/12/20 03:56:24;;;;;;;45.67;20.43;;;;;;;5.46;71.86;97336.81;5074960;28;20431;-65
2021/12/20 03:58:50;;;;;;;45.60;20.50;;;;;;;5.20;72.51;97346.56;5066119;28;20451;-68
2021/12/20 04:01:16;;;;;;;38.57;19.30;;;;;;;5.12;73.20;97349.75;5047978;28;20467;-66
2021/12/20 04:03:43;;;;;;;39.20;19.37;;;;;;;5.30;73.03;97350.13;5029755;28;20190;-69
2021/12/20 04:06:10;;;;;;;51.60;22.57;;;;;;;5.50;71.98;97348.63;5073022;28;20412;-67
2021/12/20 04:08:36;;;;;;;43.67;21.40;;;;;;;5.79;71.07;97339.56;5066859;28;20434;-70
2021/12/20 04:11:02;;;;;;;43.40;19.47;;;;;;;5.55;70.76;97343.06;5070156;28;21001;-68
2021/12/20 04:13:28;;;;;;;38.23;19.43;;;;;;;5.72;70.92;97338.34;5063620;28;20207;-68
2021/12/20 04:15:54;;;;;;;41.33;18.90;;;;;;;5.71;71.14;97332.34;5056748;28;20428;-67
2021/12/20 04:18:20;;;;;;;45.87;20.67;;;;;;;5.86;70.92;97335.53;5068863;28;20186;-68
2021/12/20 04:20:46;;;;;;;43.63;21.07;;;;;;;5.89;70.52;97337.03;5071399;28;20282;-69
2021/12/20 04:23:11;;;;;;;43.37;20.60;;;;;;;5.67;70.73;97338.72;5066238;28;20455;-67
2021/12/20 04:25:37;;;;;;;40.80;21.67;;;;;;;5.46;71.69;97338.59;5066196;28;20269;-67
2021/12/20 04:28:03;;;;;;;43.67;22.40;;;;;;;5.75;71.07;97338.13;5062998;28;20190;-68
2021/12/20 04:30:31;;;;;;;50.60;22.57;;;;;;;5.81;70.66;97340.25;5062834;28;20198;-67
2021/12/20 04:32:57;;;;;;;41.77;20.70;;;;;;;5.92;70.70;97335.03;5047604;28;20298;-68
2021/12/20 04:35:23;;;;;;;42.63;20.60;;;;;;;5.78;70.27;97328.31;5062465;28;20456;-68
2021/12/20 04:37:50;;;;;;;37.90;19.10;;;;;;;5.54;71.08;97338.84;5060507;28;20450;-68
2021/12/20 04:40:21;;;;;;;42.67;19.17;;;;;;;5.80;71.15;97330.78;5065080;28;20212;-68
2021/12/20 04:42:48;;;;;;;42.23;21.97;;;;;;;5.83;70.82;97335.75;5063287;28;20511;-68
2021/12/20 04:45:14;;;;;;;44.30;20.60;;;;;;;5.96;70.92;97336.44;5071945;28;20440;-68
2021/12/20 04:47:40;;;;;;;45.70;21.30;;;;;;;5.91;70.48;97335.16;5063527;28;20911;-70
2021/12/20 04:50:06;;;;;;;41.60;20.90;;;;;;;6.10;70.33;97330.22;5060824;28;20832;-68
2021/12/20 04:52:31;;;;;;;40.87;20.30;;;;;;;6.06;70.03;97336.59;5068258;28;20210;-68
2021/12/20 04:54:57;;;;;;;39.97;19.73;;;;;;;5.81;69.93;97335.03;5061746;28;20911;-68
2021/12/20 04:57:23;;;;;;;49.97;22.93;;;;;;;5.84;70.43;97335.66;5066701;28;20174;-70
2021/12/20 04:59:48;;;;;;;49.60;25.30;;;;;;;6.02;70.23;97332.56;5045726;28;20187;-70
2021/12/20 05:02:14;;;;;;;37.27;19.20;;;;;;;5.45;70.77;97337.75;5013112;28;20190;-71
2021/12/20 05:04:41;;;;;;;38.50;17.93;;;;;;;5.72;70.87;97343.56;5051941;28;20645;-67
2021/12/20 05:07:07;;;;;;;38.80;18.90;;;;;;;5.90;70.54;97346.50;5060604;28;20520;-68
2021/12/20 05:09:37;;;;;;;31.73;17.17;;;;;;;5.92;70.66;97337.63;5060033;28;20430;-67
2021/12/20 05:12:14;;;;;;;33.53;17.23;;;;;;;6.01;70.35;97332.69;5072854;28;20261;-68
2021/12/20 05:14:43;;;;;;;35.87;17.73;;;;;;;5.95;70.47;97337.38;5067733;28;20438;-68
2021/12/20 05:17:13;;;;;;;29.37;15.90;;;;;;;6.04;69.79;97330.69;5059092;28;20440;-67
2021/12/20 05:19:40;;;;;;;37.43;16.23;;;;;;;5.87;69.96;97336.34;5025922;28;20433;-68
2021/12/20 05:22:06;;;;;;;30.60;15.97;;;;;;;6.03;69.72;97341.22;5054207;28;20535;-68
2021/12/20 05:24:31;;;;;;;35.60;15.47;;;;;;;6.12;69.96;97335.28;5065538;28;20449;-68
2021/12/20 05:26:57;;;;;;;31.10;15.23;;;;;;;6.15;69.76;97335.06;5070129;28;20653;-68
2021/12/20 05:29:24;;;;;;;26.53;14.10;;;;;;;6.13;69.36;97342.16;5066271;28;20178;-69
2021/12/20 05:31:50;;;;;;;32.67;14.90;;;;;;;6.23;68.87;97348.28;5065347;28;20617;-68
2021/12/20 05:34:16;;;;;;;26.40;14.83;;;;;;;6.39;68.59;97349.66;5039241;28;20524;-67
2021/12/20 05:36:41;;;;;;;29.23;15.30;;;;;;;6.46;68.59;97348.22;5058735;28;20852;-69
2021/12/20 05:39:07;;;;;;;24.70;13.30;;;;;;;6.54;68.50;97348.44;5067705;28;20192;-69
2021/12/20 05:41:32;;;;;;;28.03;14.37;;;;;;;6.49;68.24;97332.34;5054633;28;20588;-70
2021/12/20 05:43:58;;;;;;;27.60;14.07;;;;;;;6.52;67.99;97333.88;5061436;28;20187;-67
2021/12/20 05:46:24;;;;;;;26.83;14.67;;;;;;;6.51;67.77;97340.03;5066969;28;20183;-68
2021/12/20 05:48:49;;;;;;;21.77;13.23;;;;;;;6.43;68.05;97351.06;5059583;28;20542;-68
2021/12/20 05:51:15;;;;;;;27.13;14.03;;;;;;;6.50;67.74;97348.78;5055025;28;20194;-67
2021/12/20 05:53:40;;;;;;;29.70;13.07;;;;;;;6.44;67.90;97352.72;5064286;28;20193;-68
2021/12/20 05:56:06;;;;;;;25.57;13.47;;;;;;;6.50;67.42;97356.59;5067518;28;20240;-67
2021/12/20 05:58:32;;;;;;;25.10;13.10;;;;;;;6.44;67.41;97355.31;5059457;28;20545;-69
2021/12/20 06:00:57;;;;;;;27.67;14.30;;;;;;;6.44;67.95;97360.53;5066137;28;20202;-69
2021/12/20 06:03:23;;;;;;;23.53;13.20;;;;;;;6.48;67.40;97367.16;5030431;28;20717;-68
2021/12/20 06:05:48;;;;;;;29.10;15.07;;;;;;;6.55;67.35;97368.28;5033394;28;20274;-71
2021/12/20 06:08:14;;;;;;;27.70;14.63;;;;;;;6.41;67.69;97361.59;5048358;28;20258;-69
2021/12/20 06:10:40;;;;;;;26.10;13.30;;;;;;;6.45;67.50;97362.19;5063377;28;20556;-67
2021/12/20 06:13:06;;;;;;;22.23;12.50;;;;;;;6.33;67.61;97363.16;5049008;28;20191;-67
2021/12/20 06:15:32;;;;;;;27.27;12.70;;;;;;;6.33;67.76;97369.22;5072218;28;20174;-70
2021/12/20 06:17:57;;;;;;;27.50;14.20;;;;;;;6.51;67.60;97360.84;5063789;28;20420;-68
2021/12/20 06:20:23;;;;;;;25.30;14.13;;;;;;;6.61;67.48;97361.81;5063769;28;20444;-69
2021/12/20 06:22:49;;;;;;;25.00;14.43;;;;;;;6.49;67.25;97362.78;5058834;28;20182;-70
2021/12/20 06:25:15;;;;;;;25.47;15.40;;;;;;;6.51;67.80;97361.69;5061898;28;20425;-67
2021/12/20 06:27:41;;;;;;;28.03;14.70;;;;;;;6.59;67.32;97359.31;5063728;28;20318;-67
2021/12/20 06:30:08;;;;;;;27.40;15.17;;;;;;;6.39;67.53;97362.69;5058571;28;21036;-68
2021/12/20 06:32:42;;;;;;;29.77;14.60;;;;;;;5.78;69.67;97363.91;5055626;28;20507;-68
2021/12/20 06:35:08;;;;;;;26.70;14.30;;;;;;;5.69;70.43;97363.66;5060577;28;20440;-70
2021/12/20 06:37:34;;;;;;;26.17;14.93;;;;;;;5.80;69.58;97362.00;5054149;28;20428;-70
2021/12/20 06:40:00;;;;;;;38.17;17.23;;;;;;;5.98;69.37;97360.56;5051623;28;20528;-68
2021/12/20 06:42:26;;;;;;;39.27;19.37;;;;;;;6.03;69.38;97372.44;5063928;28;20265;-68
2021/12/20 06:44:51;;;;;;;26.47;15.37;;;;;;;6.23;68.78;97368.28;5070747;28;20507;-68
2021/12/20 06:47:19;;;;;;;36.60;16.77;;;;;;;6.26;68.44;97368.88;5063697;28;20428;-67
2021/12/20 06:49:44;;;;;;;29.50;15.50;;;;;;;6.29;68.30;97363.41;5053774;28;20699;-69
2021/12/20 06:52:10;;;;;;;24.53;14.23;;;;;;;6.02;68.94;97363.78;5055647;28;20453;-67
2021/12/20 06:54:36;;;;;;;27.90;14.60;;;;;;;6.04;68.98;97368.91;5064915;28;20195;-69
2021/12/20 06:57:02;;;;;;;27.20;15.10;;;;;;;6.27;68.75;97357.50;5061963;28;20277;-68
2021/12/20 06:59:27;;;;;;;25.20;14.47;;;;;;;6.00;69.04;97363.09;5064543;28;20191;-69
2021/12/20 07:01:53;;;;;;;26.53;15.07;;;;;;;5.93;69.54;97375.69;5037183;28;20200;-69
2021/12/20 07:04:19;;;;;;;27.60;14.10;;;;;;;6.22;69.06;97377.84;5063476;28;20248;-69
2021/12/20 07:06:44;;;;;;;29.27;15.20;;;;;;;6.41;68.43;97366.00;5054279;28;20707;-67
2021/12/20 07:09:10;;;;;;;29.57;15.07;;;;;;;6.34;68.04;97370.03;5066479;28;20187;-68
2021/12/20 07:11:36;;;;;;;29.80;15.57;;;;;;;6.20;68.22;97364.13;5043180;28;20216;-68
2021/12/20 07:14:02;;;;;;;29.83;14.87;;;;;;;6.46;67.84;97379.47;5071367;28;20425;-69
2021/12/20 07:16:32;;;;;;;38.53;16.50;;;;;;;6.54;67.76;97376.25;5070093;28;20189;-67
2021/12/20 07:18:58;;;;;;;29.50;15.90;;;;;;;6.65;67.60;97375.41;5068807;28;20490;-68
2021/12/20 07:21:23;;;;;;;25.27;14.07;;;;;;;6.75;67.29;97382.31;5056509;28;20449;-68
2021/12/20 07:23:49;;;;;;;26.50;14.60;;;;;;;6.52;67.18;97376.38;5062610;28;20179;-69
2021/12/20 07:26:15;;;;;;;24.73;14.50;;;;;;;6.18;68.35;97386.03;5062586;28;20182;-69
2021/12/20 07:28:42;;;;;;;26.03;14.27;;;;;;;6.48;68.15;97389.78;5069808;28;20193;-67
2021/12/20 07:31:10;;;;;;;28.43;14.77;;;;;;;6.61;67.91;97382.63;5069269;28;20230;-67
2021/12/20 07:33:35;;;;;;;30.47;16.00;;;;;;;6.72;67.37;97384.34;5070055;28;20523;-68
2021/12/20 07:36:01;;;;;;;32.47;16.93;;;;;;;6.81;66.95;97388.00;5070564;28;20473;-69
2021/12/20 07:38:26;;;;;;;31.23;15.50;;;;;;;6.59;67.55;97394.94;5067786;28;20645;-67
2021/12/20 07:40:52;;;;;;;29.50;16.73;;;;;;;6.65;68.02;97398.84;5047639;28;20215;-68
2021/12/20 07:43:18;;;;;;;29.97;15.03;;;;;;;6.74;67.84;97405.91;5063727;28;20664;-69
2021/12/20 07:45:47;;;;;;;26.90;14.33;;;;;;;6.75;67.52;97404.97;5062784;28;20728;-69
2021/12/20 07:48:16;;;;;;;30.03;15.50;;;;;;;6.93;67.45;97407.03;5050000;28;20893;-67
2021/12/20 07:50:42;;;;;;;30.00;15.57;;;;;;;6.95;67.29;97394.69;5065711;28;20450;-67
2021/12/20 07:53:08;;;;;;;27.10;14.77;;;;;;;6.99;66.99;97396.94;5053097;28;20425;-68
2021/12/20 07:55:34;;;;;;;27.40;14.57;;;;;;;7.00;66.90;97400.38;5062684;28;20472;-67
2021/12/20 07:57:59;;;;;;;36.30;18.20;;;;;;;6.98;66.89;97405.72;5052360;28;20947;-66
2021/12/20 08:00:25;;;;;;;31.93;17.10;;;;;;;6.95;66.79;97402.50;5062074;28;20247;-68
2021/12/20 08:02:51;;;;;;;31.00;17.50;;;;;;;7.05;67.05;97406.84;5056116;28;20190;-67
2021/12/20 08:05:19;;;;;;;36.30;19.67;;;;;;;7.05;67.30;97413.88;5038701;28;20430;-66
2021/12/20 08:07:47;;;;;;;52.67;29.50;;;;;;;7.11;67.02;97405.53;5063684;28;20175;-68
2021/12/20 08:10:13;;;;;;;56.23;26.63;;;;;;;7.07;66.92;97407.56;5043041;28;20465;-69
2021/12/20 08:12:38;;;;;;;37.50;20.43;;;;;;;7.06;66.79;97412.88;5041687;28;20555;-67
2021/12/20 08:15:04;;;;;;;32.97;18.13;;;;;;;7.05;66.81;97406.03;5052577;28;20245;-67
2021/12/20 08:17:31;;;;;;;37.40;18.50;;;;;;;6.96;66.89;97411.97;5070817;28;20178;-67
2021/12/20 08:19:57;;;;;;;95.93;47.53;;;;;;;7.08;67.21;97408.38;5060050;28;21209;-67
2021/12/20 08:22:25;;;;;;;55.70;27.93;;;;;;;7.07;66.92;97409.31;5054946;28;20421;-66
2021/12/20 08:24:51;;;;;;;92.23;43.13;;;;;;;7.11;66.87;97409.94;5055339;28;20425;-68
2021/12/20 08:27:17;;;;;;;63.20;32.47;;;;;;;7.12;66.93;97412.41;5058758;28;20425;-66
2021/12/20 08:29:43;;;;;;;40.53;20.10;;;;;;;7.14;66.51;97407.88;5062350;28;20962;-66
2021/12/20 08:32:08;;;;;;;36.80;18.40;;;;;;;7.16;67.27;97412.97;5068790;28;20285;-66
2021/12/20 08:34:34;;;;;;;41.77;23.10;;;;;;;7.20;66.95;97417.81;5062685;28;20847;-68
2021/12/20 08:37:03;;;;;;;50.87;25.97;;;;;;;7.22;66.50;97408.09;5070649;28;20209;-66
2021/12/20 08:39:30;;;;;;;45.63;23.30;;;;;;;7.24;66.42;97413.19;5061809;28;20608;-67
2021/12/20 08:41:56;;;;;;;42.93;21.90;;;;;;;7.33;66.75;97417.63;5061578;28;20453;-67
2021/12/20 08:44:22;;;;;;;34.00;19.27;;;;;;;7.41;65.88;97417.00;5064525;28;20424;-67
2021/12/20 08:46:47;;;;;;;35.60;19.80;;;;;;;7.48;65.85;97420.75;5063756;28;20516;-66
2021/12/20 08:49:13;;;;;;;36.90;20.40;;;;;;;7.29;66.28;97425.84;5065685;28;20485;-68
2021/12/20 08:51:39;;;;;;;34.60;18.20;;;;;;;7.48;66.38;97431.19;5073761;28;20264;-67
2021/12/20 08:54:05;;;;;;;33.77;19.57;;;;;;;7.57;65.65;97415.72;5071021;28;20269;-66
2021/12/20 08:56:31;;;;;;;60.27;27.67;;;;;;;7.60;65.56;97436.31;5060412;28;20421;-66
2021/12/20 08:58:56;;;;;;;71.67;33.80;;;;;;;7.58;65.53;97433.00;5062990;28;20489;-66
2021/12/20 09:01:22;;;;;;;43.73;20.67;;;;;;;7.37;65.76;97420.81;5061718;28;20222;-66
2021/12/20 09:03:48;;;;;;;39.47;19.80;;;;;;;7.55;65.49;97433.28;5062679;28;20261;-65
2021/12/20 09:06:14;;;;;;;37.70;19.80;;;;;;;7.57;65.62;97431.34;5065330;28;20185;-67
2021/12/20 09:08:42;;;;;;;46.93;20.93;;;;;;;7.13;66.34;97427.09;5065427;28;20179;-66
2021/12/20 09:11:08;;;;;;;36.60;18.70;;;;;;;6.90;67.79;97428.94;5064033;28;21046;-67
2021/12/20 09:13:33;;;;;;;37.27;19.60;;;;;;;7.24;67.09;97436.66;5065180;28;20433;-67
2021/12/20 09:15:59;;;;;;;33.23;17.63;;;;;;;7.51;66.49;97436.16;5071992;28;20763;-67
2021/12/20 09:18:29;;;;;;;33.93;18.67;;;;;;;7.57;65.33;97449.63;5073161;28;20178;-66
2021/12/20 09:20:56;;;;;;;34.30;19.73;;;;;;;7.31;66.61;97437.78;5069725;28;20968;-68
2021/12/20 09:23:22;;;;;;;36.83;19.60;;;;;;;7.09;66.91;97438.72;5073226;28;20421;-68
2021/12/20 09:25:48;;;;;;;36.90;19.97;;;;;;;7.30;67.14;97443.13;5072554;28;20440;-66
2021/12/20 09:28:15;;;;;;;37.63;20.20;;;;;;;7.42;66.86;97455.16;5069699;28;20187;-66
2021/12/20 09:30:45;;;;;;;33.10;19.10;;;;;;;7.48;66.18;97453.84;5069868;28;20257;-68
2021/12/20 09:33:11;;;;;;;30.60;17.67;;;;;;;7.31;66.39;97443.00;5058991;28;20442;-66
2021/12/20 09:35:38;;;;;;;38.67;19.30;;;;;;;7.01;67.42;97451.53;5056345;28;20437;-67
2021/12/20 09:38:08;;;;;;;40.27;21.20;;;;;;;7.03;68.42;97449.66;5063230;28;20212;-66
2021/12/20 09:40:37;;;;;;;36.90;20.10;;;;;;;6.30;70.52;97442.31;5061644;28;21234;-69
2021/12/20 09:43:11;;;;;;;37.00;18.67;;;;;;;6.39;70.51;97446.00;5047926;28;20425;-66
2021/12/20 09:45:38;;;;;;;32.07;17.63;;;;;;;6.20;70.18;97447.41;5061758;28;20467;-67
2021/12/20 09:48:04;;;;;;;42.90;20.63;;;;;;;6.83;68.87;97451.25;5071661;28;20457;-68
2021/12/20 09:50:30;;;;;;;43.00;21.47;;;;;;;6.99;68.19;97445.63;5058464;28;20461;-67
2021/12/20 09:52:56;;;;;;;37.40;19.17;;;;;;;7.24;67.69;97447.06;5062367;28;20452;-66
2021/12/20 09:55:22;;;;;;;38.13;19.60;;;;;;;6.30;70.01;97445.75;5064529;28;20186;-68
2021/12/20 09:57:49;;;;;;;40.50;20.33;;;;;;;6.22;69.72;97435.13;5064640;28;20441;-67
2021/12/20 10:00:20;;;;;;;39.60;20.60;;;;;;;6.78;69.10;97443.78;5069924;28;20651;-67
2021/12/20 10:02:47;;;;;;;45.80;19.67;;;;;;;7.02;67.67;97445.38;5037669;28;20428;-67
2021/12/20 10:05:13;;;;;;;39.83;19.60;;;;;;;6.75;68.81;97442.25;5063835;28;20417;-67
2021/12/20 10:07:40;;;;;;;38.43;20.20;;;;;;;6.69;68.65;97447.09;5072119;28;20807;-67
2021/12/20 10:10:08;;;;;;;39.30;19.57;;;;;;;7.00;68.25;97434.25;5054105;28;20970;-67
2021/12/20 10:12:34;;;;;;;36.73;19.70;;;;;;;6.26;69.62;97443.50;5039373;28;20569;-67
2021/12/20 10:15:10;;;;;;;41.00;19.90;;;;;;;7.13;67.85;97434.91;5047698;28;20520;-67
2021/12/20 10:17:58;;;;;;;39.37;19.43;;;;;;;7.23;67.20;97437.59;5059163;28;20488;-65
2021/12/20 10:20:26;;;;;;;40.67;20.63;;;;;;;7.29;66.40;97433.66;5058951;28;20778;-69
2021/12/20 10:22:54;;;;;;;41.13;20.17;;;;;;;7.34;66.51;97436.69;5048862;28;20919;-68
2021/12/20 10:25:24;;;;;;;42.63;22.03;;;;;;;7.22;67.04;97439.38;5060004;28;20813;-68
2021/12/20 10:27:50;;;;;;;39.23;18.70;;;;;;;7.29;66.07;97439.69;5069089;28;20791;-68
2021/12/20 10:30:26;;;;;;;36.10;18.70;;;;;;;7.21;66.88;97437.72;5070837;28;20460;-67
2021/12/20 10:32:52;;;;;;;40.73;20.03;;;;;;;6.76;68.28;97432.66;5071117;28;20463;-71
2021/12/20 10:35:37;;;;;;;39.43;21.13;;;;;;;6.98;67.12;97437.00;5056722;28;20444;-67
2021/12/20 10:38:20;;;;;;;40.97;20.17;;;;;;;7.42;67.08;97439.53;5045638;28;20448;-67
2021/12/20 10:40:52;;;;;;;42.30;20.97;;;;;;;7.62;65.88;97430.06;5058799;28;20510;-70
2021/12/20 10:43:21;;;;;;;43.60;20.60;;;;;;;7.68;65.44;97431.31;5057137;28;20824;-69
2021/12/20 10:45:47;;;;;;;40.30;20.07;;;;;;;7.55;66.66;97428.06;5071586;28;20511;-67
2021/12/20 10:48:12;;;;;;;40.57;20.80;;;;;;;7.44;66.21;97432.38;5066824;28;20520;-68
2021/12/20 10:50:45;;;;;;;32.97;16.77;;;;;;;7.71;64.42;97435.44;5047642;28;20290;-66
2021/12/20 10:53:17;;;;;;;26.27;14.70;;;;;;;7.88;62.19;97421.78;5055581;28;20556;-66
2021/12/20 10:55:45;;;;;;;25.27;11.83;;;;;;;7.98;60.77;97419.22;5068169;28;20932;-66
2021/12/20 10:58:19;;;;;;;19.50;11.33;;;;;;;8.42;59.32;97414.59;5053585;28;20449;-67
2021/12/20 11:00:46;;;;;;;23.00;12.50;;;;;;;8.21;59.02;97419.03;5062329;28;20902;-68
2021/12/20 11:03:27;;;;;;;27.20;13.07;;;;;;;8.68;57.58;97416.75;5051805;28;20417;-67
2021/12/20 11:06:37;;;;;;;18.93;10.27;;;;;;;8.47;58.56;97411.56;5060427;28;20498;-68
2021/12/20 11:11:30;;;;;;;25.40;13.00;;;;;;;8.47;58.08;97411.56;5054412;28;20537;-67
2021/12/20 11:13:58;;;;;;;22.20;12.87;;;;;;;8.38;59.10;97407.16;5071651;28;20513;-67
2021/12/20 11:16:29;;;;;;;20.87;12.30;;;;;;;8.23;58.95;97406.69;5066581;28;20526;-68
2021/12/20 11:19:07;;;;;;;27.57;14.40;;;;;;;8.06;59.07;97418.56;5059998;28;20431;-68
2021/12/20 11:21:38;;;;;;;20.23;11.87;;;;;;;7.34;60.90;97421.06;5070792;28;20494;-65
2021/12/20 11:24:11;;;;;;;19.33;11.40;;;;;;;7.59;59.85;97412.03;5071593;28;20413;-68
2021/12/20 11:26:38;;;;;;;27.13;14.00;;;;;;;7.19;60.52;97416.16;5071390;28;20449;-65
2021/12/20 11:29:04;;;;;;;26.10;12.80;;;;;;;7.37;60.14;97413.00;5052482;28;20430;-68
2021/12/20 11:31:29;;;;;;;21.30;11.77;;;;;;;7.03;60.75;97419.19;5070919;28;20457;-67
2021/12/20 11:33:55;;;;;;;21.27;11.53;;;;;;;6.73;60.99;97414.66;5062768;28;20187;-67
2021/12/20 11:36:21;;;;;;;19.13;10.97;;;;;;;6.98;61.27;97404.88;5069746;28;20277;-68